Airfield :
LOGIN :

Register | Disclaimer

   EN    FR    IT 

 










Legend :    VFR   Marginal VFR   IFR   Intensive IFR   Very Intensive IFR
Visi :
Ceiling :
>= 8 km
>= 3000ft
5 to 8 km
1000 to 3000 ft
1500m to 5 km
500 to 1000 ft
800 to 1500m
200 to 500 ft
< 800m
< 200 ft
Symbols :   Thunderstorms  Fog  Heavy snow  Heavy precipitations  Wind > 20 kt
SIGMETs :     Misc.  Thunderstorms  Icing  Turbulence  Mountain Waves  Volcanic Ashes






- Airport Elevation : 359 ft
- IATA code : BVA


LFOB - Beauvais

CURRENT METAR :
  • 232230Z AUTO 04005KT 5000 BR OVC004 02/01 Q1025 TEMPO 0500 FZFG VV///

EXPIRED METARs :
  • 232200Z AUTO 04006KT 5000 BR OVC004 02/01 Q1026 BECMG 2000 BR
  • 232130Z AUTO 06004KT 010V130 5000 BR OVC005 01/01 Q1026 BECMG 2000 BR
  • 232100Z AUTO 11004KT 5000 BR OVC005 02/01 Q1026 BECMG 2000 BR
  • 232030Z AUTO 07004KT 5000 BR OVC005 01/00 Q1026 BECMG 2000 BR
  • 232000Z AUTO 07005KT 5000 BR OVC005 01/00 Q1026 BECMG 2000 BR
  • 231930Z AUTO 06008KT 5000 BR OVC005 01/00 Q1026 BECMG 2000 BR

TAF TAF LFOB
Valid from the 23 at 18:00 until the 24 at 18:00 UTC


231700Z 2318/2418 06008KT 4000 BR OVC003
BECMG 2319/2322 2000 BR
PROB30
TEMPO 2400/2409 0500 FZFG VV///
BECMG 2410/2413 7000 NSW OVC007
ATIS : +33 3 44 11 49 28



MET'MAP, your aeronautical weather chart ! - Copyright ORBIFLY December 2007 - Disclaimer

ORBIFLY MET'MAP TEAM :

Programming & Development : Alexandra Zaïnal
Concept & original design : Baudouin d'Aumeries
Assistance for programming : Marc-Olivier Méhu
Technical & hardware support : Manuel Goepfert

Contact : metmap@orbifly.com




SOURCES & CREDITS :

   NOAA